createdAt,value
2018-12-17T00:01:13.181Z,95238.88
2018-12-17T00:03:42.501Z,95245.08
2018-12-17T00:06:11.651Z,95238.30
2018-12-17T00:08:40.887Z,95240.74
2018-12-17T00:11:10.267Z,95220.55
2018-12-17T00:13:39.585Z,95225.91
2018-12-17T00:16:08.908Z,95226.52
2018-12-17T00:18:38.311Z,95230.39
2018-12-17T00:21:07.714Z,95234.41
2018-12-17T00:23:36.899Z,95239.25
2018-12-17T00:26:06.267Z,95246.03
2018-12-17T00:28:35.715Z,95247.69
2018-12-17T00:31:05.112Z,95240.38
2018-12-17T00:33:34.414Z,95236.56
2018-12-17T00:36:03.895Z,95242.91
2018-12-17T00:38:33.022Z,95253.72
2018-12-17T00:41:02.226Z,95255.41
2018-12-17T00:43:31.456Z,95257.34
2018-12-17T00:46:01.080Z,95260.16
2018-12-17T00:48:30.675Z,95269.98
2018-12-17T00:51:00.046Z,95272.38
2018-12-17T00:53:29.274Z,95261.47
2018-12-17T00:55:58.547Z,95264.52
2018-12-17T00:58:28.041Z,95266.59
2018-12-17T01:00:57.459Z,95276.06
2018-12-17T01:03:26.845Z,95273.38
2018-12-17T01:05:56.247Z,95270.41
2018-12-17T01:08:25.572Z,95267.36
2018-12-17T01:10:55.048Z,95261.55
2018-12-17T01:13:24.352Z,95253.88
2018-12-17T01:15:53.770Z,95259.05
2018-12-17T01:18:22.932Z,95263.70
2018-12-17T01:20:52.258Z,95249.14
2018-12-17T01:23:21.655Z,95237.65
2018-12-17T01:25:51.063Z,95236.52
2018-12-17T01:28:22.246Z,95241.61
2018-12-17T01:30:51.810Z,95242.06
2018-12-17T01:33:21.328Z,95241.00
2018-12-17T01:35:50.632Z,95236.38
2018-12-17T01:38:19.865Z,95233.38
2018-12-17T01:40:49.324Z,95220.66
2018-12-17T01:43:18.541Z,95214.74
2018-12-17T01:45:47.749Z,95210.34
2018-12-17T01:48:17.890Z,95215.31
2018-12-17T01:50:47.199Z,95210.50
2018-12-17T01:53:16.360Z,95201.47
2018-12-17T01:55:45.561Z,95207.77
2018-12-17T01:58:14.949Z,95213.81
2018-12-17T02:00:44.257Z,95211.80
2018-12-17T02:03:13.656Z,95202.79
2018-12-17T02:05:43.043Z,95196.97
2018-12-17T02:08:12.263Z,95195.94
2018-12-17T02:10:41.568Z,95190.26
2018-12-17T02:13:10.770Z,95195.05
2018-12-17T02:15:40.183Z,95197.33
2018-12-17T02:18:09.601Z,95199.37
2018-12-17T02:20:38.863Z,95196.36
2018-12-17T02:23:08.103Z,95201.14
2018-12-17T02:25:37.380Z,95200.39
2018-12-17T02:28:06.654Z,95196.66
2018-12-17T02:30:35.881Z,95198.95
2018-12-17T02:33:05.071Z,95189.80
2018-12-17T02:35:34.407Z,95188.25
2018-12-17T02:38:03.815Z,95184.89
2018-12-17T02:40:33.096Z,95190.15
2018-12-17T02:43:02.269Z,95190.22
2018-12-17T02:45:31.572Z,95193.79
2018-12-17T02:48:00.772Z,95193.66
2018-12-17T02:50:29.974Z,95195.88
2018-12-17T02:52:59.242Z,95198.63
2018-12-17T02:55:28.475Z,95198.73
2018-12-17T02:57:57.787Z,95199.80
2018-12-17T03:00:27.077Z,95195.06
2018-12-17T03:02:56.580Z,95199.78
2018-12-17T03:05:26.040Z,95198.22
2018-12-17T03:07:56.175Z,95202.20
2018-12-17T03:10:25.594Z,95205.66
2018-12-17T03:12:54.819Z,95202.44
2018-12-17T03:15:23.906Z,95203.92
2018-12-17T03:17:53.402Z,95208.34
2018-12-17T03:20:22.603Z,95210.07
2018-12-17T03:22:52.031Z,95206.57
2018-12-17T03:25:21.429Z,95200.59
2018-12-17T03:27:50.630Z,95198.03
2018-12-17T03:30:19.949Z,95207.64
2018-12-17T03:32:49.145Z,95203.96
2018-12-17T03:35:18.531Z,95206.44
2018-12-17T03:37:47.952Z,95204.20
2018-12-17T03:40:17.225Z,95212.13
2018-12-17T03:42:46.634Z,95206.95
2018-12-17T03:45:15.931Z,95205.88
2018-12-17T03:47:45.088Z,95214.03
2018-12-17T03:50:14.459Z,95216.71
2018-12-17T03:52:43.831Z,95202.71
2018-12-17T03:55:13.123Z,95211.34
2018-12-17T03:57:42.444Z,95219.39
2018-12-17T04:00:11.856Z,95220.31
2018-12-17T04:02:41.235Z,95214.06
2018-12-17T04:05:10.476Z,95208.50
2018-12-17T04:07:39.763Z,95212.77
2018-12-17T04:10:09.136Z,95214.84
2018-12-17T04:12:38.703Z,95224.30
2018-12-17T04:15:07.975Z,95224.23
2018-12-17T04:17:37.363Z,95229.61
2018-12-17T04:20:06.756Z,95219.89
2018-12-17T04:22:35.864Z,95224.70
2018-12-17T04:25:05.273Z,95230.36
2018-12-17T04:27:34.768Z,95227.45
2018-12-17T04:30:04.206Z,95225.58
2018-12-17T04:32:33.500Z,95230.53
2018-12-17T04:35:02.886Z,95229.76
2018-12-17T04:37:32.181Z,95239.62
2018-12-17T04:40:01.382Z,95239.62
2018-12-17T04:42:30.773Z,95236.66
2018-12-17T04:45:00.078Z,95238.73
2018-12-17T04:47:29.513Z,95241.68
2018-12-17T04:49:58.785Z,95237.66
2018-12-17T04:52:28.184Z,95242.06
2018-12-17T04:54:57.491Z,95243.55
2018-12-17T04:57:26.889Z,95237.52
2018-12-17T04:59:56.136Z,95244.16
2018-12-17T05:02:25.308Z,95240.34
2018-12-17T05:04:54.690Z,95242.14
2018-12-17T05:07:24.028Z,95240.97
2018-12-17T05:09:53.310Z,95237.30
2018-12-17T05:12:22.719Z,95238.22
2018-12-17T05:14:52.121Z,95238.02
2018-12-17T05:17:21.454Z,95239.81
2018-12-17T05:19:50.738Z,95239.70
2018-12-17T05:22:20.208Z,95244.72
2018-12-17T05:24:49.839Z,95242.45
2018-12-17T05:27:19.218Z,95246.73
2018-12-17T05:29:48.544Z,95250.80
2018-12-17T05:32:18.286Z,95238.78
2018-12-17T05:34:47.629Z,95244.44
2018-12-17T05:37:16.955Z,95246.23
2018-12-17T05:39:46.348Z,95244.61
2018-12-17T05:42:15.672Z,95248.64
2018-12-17T05:44:44.862Z,95238.11
2018-12-17T05:47:14.252Z,95245.14
2018-12-17T05:49:43.704Z,95241.33
2018-12-17T05:52:13.055Z,95242.39
2018-12-17T05:54:42.484Z,95237.66
2018-12-17T05:57:11.781Z,95235.88
2018-12-17T05:59:41.104Z,95231.61
2018-12-17T06:02:10.387Z,95239.98
2018-12-17T06:04:39.579Z,95239.68
2018-12-17T06:07:08.886Z,95235.60
2018-12-17T06:09:38.023Z,95233.67
2018-12-17T06:12:07.268Z,95238.88
2018-12-17T06:14:36.703Z,95234.11
2018-12-17T06:17:05.966Z,95239.48
2018-12-17T06:19:35.280Z,95241.10
2018-12-17T06:22:04.684Z,95237.55
2018-12-17T06:24:33.990Z,95240.22
2018-12-17T06:27:03.168Z,95242.77
2018-12-17T06:29:35.589Z,95242.97
2018-12-17T06:32:03.819Z,95247.67
2018-12-17T06:34:32.781Z,95248.92
2018-12-17T06:37:01.728Z,95247.51
2018-12-17T06:39:31.099Z,95243.11
2018-12-17T06:42:00.328Z,95247.44
2018-12-17T06:44:29.525Z,95245.30
2018-12-17T06:46:58.822Z,95240.22
2018-12-17T06:49:28.023Z,95239.85
2018-12-17T06:51:57.681Z,95240.59
2018-12-17T06:54:27.334Z,95243.67
2018-12-17T06:56:56.693Z,95240.53
2018-12-17T06:59:25.952Z,95242.97
2018-12-17T07:01:55.302Z,95239.84
2018-12-17T07:04:24.654Z,95243.05
2018-12-17T07:06:53.955Z,95246.94
2018-12-17T07:09:23.365Z,95246.62
2018-12-17T07:11:52.661Z,95244.99
2018-12-17T07:14:21.970Z,95247.51
2018-12-17T07:16:51.255Z,95248.39
2018-12-17T07:19:20.764Z,95252.81
2018-12-17T07:21:49.935Z,95251.02
2018-12-17T07:24:19.165Z,95245.52
2018-12-17T07:26:48.560Z,95244.61
2018-12-17T07:29:17.874Z,95254.08
2018-12-17T07:31:47.274Z,95252.42
2018-12-17T07:34:16.414Z,95249.45
2018-12-17T07:36:45.416Z,95253.77
2018-12-17T07:39:14.629Z,95256.38
2018-12-17T07:41:43.912Z,95255.63
2018-12-17T07:44:13.435Z,95252.42
2018-12-17T07:46:42.920Z,95255.17
2018-12-17T07:49:12.067Z,95259.06
2018-12-17T07:51:41.380Z,95269.03
2018-12-17T07:54:10.678Z,95258.52
2018-12-17T07:56:39.916Z,95260.16
2018-12-17T07:59:08.970Z,95263.16
2018-12-17T08:01:38.367Z,95263.66
2018-12-17T08:04:07.675Z,95262.27
2018-12-17T08:06:37.008Z,95262.35
2018-12-17T08:09:07.814Z,95255.32
2018-12-17T08:11:36.935Z,95250.94
2018-12-17T08:14:06.404Z,95238.08
2018-12-17T08:16:35.493Z,95259.80
2018-12-17T08:19:04.675Z,95254.45
2018-12-17T08:21:33.893Z,95263.68
2018-12-17T08:24:03.427Z,95268.39
2018-12-17T08:26:32.834Z,95263.98
2018-12-17T08:29:01.910Z,95256.61
2018-12-17T08:31:31.313Z,95256.38
2018-12-17T08:34:00.523Z,95255.04
2018-12-17T08:36:29.828Z,95245.50
2018-12-17T08:38:59.011Z,95246.16
2018-12-17T08:41:28.330Z,95243.56
2018-12-17T08:43:57.456Z,95242.00
2018-12-17T08:46:26.616Z,95248.86
2018-12-17T08:48:55.823Z,95234.10
2018-12-17T08:51:25.199Z,95243.56
2018-12-17T08:53:54.167Z,95246.60
2018-12-17T08:56:23.419Z,95238.05
2018-12-17T08:58:52.721Z,95232.91
2018-12-17T09:01:22.007Z,95236.11
2018-12-17T09:03:51.240Z,95232.91
2018-12-17T09:06:20.351Z,95233.43
2018-12-17T09:08:49.486Z,95223.23
2018-12-17T09:11:18.816Z,95231.63
2018-12-17T09:13:47.747Z,95222.24
2018-12-17T09:16:16.664Z,95226.72
2018-12-17T09:18:45.793Z,95219.48
2018-12-17T09:21:15.092Z,95222.77
2018-12-17T09:23:44.231Z,95227.01
2018-12-17T09:26:13.483Z,95219.03
2018-12-17T09:28:42.790Z,95228.95
2018-12-17T09:31:12.203Z,95218.22
2018-12-17T09:33:41.416Z,95213.98
2018-12-17T09:36:10.587Z,95219.10
2018-12-17T09:38:39.793Z,95220.97
2018-12-17T09:41:09.056Z,95219.10
2018-12-17T09:43:38.188Z,95220.23
2018-12-17T09:46:07.384Z,95220.23
2018-12-17T09:48:36.794Z,95213.38
2018-12-17T09:51:06.090Z,95214.02
2018-12-17T09:53:35.301Z,95201.30
2018-12-17T09:56:04.594Z,95203.67
2018-12-17T09:58:33.779Z,95197.56
2018-12-17T10:01:02.907Z,95194.00
2018-12-17T10:03:32.189Z,95194.07
2018-12-17T10:06:01.355Z,95184.47
2018-12-17T10:08:30.339Z,95182.53
2018-12-17T10:10:59.471Z,95180.44
2018-12-17T10:13:28.689Z,95178.05
2018-12-17T10:15:58.212Z,95174.48
2018-12-17T10:18:27.460Z,95172.67
2018-12-17T10:20:56.774Z,95168.41
2018-12-17T10:23:26.089Z,95159.09
2018-12-17T10:25:55.303Z,95158.94
2018-12-17T10:28:24.583Z,95153.72
2018-12-17T10:30:53.766Z,95152.09
2018-12-17T10:33:23.003Z,95149.80
2018-12-17T10:35:52.384Z,95149.62
2018-12-17T10:38:21.592Z,95150.92
2018-12-17T10:40:50.884Z,95151.74
2018-12-17T10:43:20.201Z,95150.86
2018-12-17T10:45:49.483Z,95147.64
2018-12-17T10:48:18.900Z,95146.73
2018-12-17T10:50:48.394Z,95144.05
2018-12-17T10:53:17.793Z,95141.14
2018-12-17T10:55:47.111Z,95141.32
2018-12-17T10:58:16.288Z,95142.17
2018-12-17T11:00:50.575Z,95134.94
2018-12-17T11:03:23.920Z,95106.31
2018-12-17T11:05:54.576Z,95133.91
2018-12-17T11:08:23.830Z,95132.78
2018-12-17T11:10:53.160Z,95137.80
2018-12-17T11:13:22.327Z,95139.30
2018-12-17T11:15:51.757Z,95132.44
2018-12-17T11:18:21.020Z,95128.56
2018-12-17T11:20:50.267Z,95131.31
2018-12-17T11:23:19.540Z,95120.30
2018-12-17T11:25:48.761Z,95127.07
2018-12-17T11:28:18.163Z,95131.31
2018-12-17T11:30:47.171Z,95125.55
2018-12-17T11:33:16.146Z,95123.27
2018-12-17T11:35:45.328Z,95126.10
2018-12-17T11:38:14.531Z,95122.29
2018-12-17T11:40:43.624Z,95120.66
2018-12-17T11:43:12.681Z,95128.13
2018-12-17T11:45:42.370Z,95126.90
2018-12-17T11:48:11.728Z,95127.94
2018-12-17T11:50:40.704Z,95125.48
2018-12-17T11:53:10.039Z,95125.14
2018-12-17T11:55:39.046Z,95116.79
2018-12-17T11:58:15.280Z,95117.83
2018-12-17T12:01:17.287Z,95114.11
2018-12-17T12:03:46.823Z,95115.94
2018-12-17T12:06:15.789Z,95120.05
2018-12-17T12:08:45.183Z,95117.67
2018-12-17T12:11:15.259Z,95118.80
2018-12-17T12:13:44.615Z,95115.78
2018-12-17T12:16:14.012Z,95112.30
2018-12-17T12:18:43.392Z,95115.77
2018-12-17T12:21:12.786Z,95119.38
2018-12-17T12:23:42.094Z,95126.96
2018-12-17T12:26:11.186Z,95128.17
2018-12-17T12:28:40.384Z,95132.80
2018-12-17T12:31:09.609Z,95126.10
2018-12-17T12:33:38.887Z,95125.88
2018-12-17T12:36:08.125Z,95122.67
2018-12-17T12:38:37.083Z,95121.15
2018-12-17T12:41:06.250Z,95128.94
2018-12-17T12:43:35.208Z,95122.17
2018-12-17T12:46:04.393Z,95122.39
2018-12-17T12:48:34.079Z,95127.44
2018-12-17T12:51:03.301Z,95128.45
2018-12-17T12:53:32.601Z,95125.63
2018-12-17T12:56:02.000Z,95123.87
2018-12-17T12:58:30.924Z,95120.66
2018-12-17T13:01:00.240Z,95117.67
2018-12-17T13:03:30.160Z,95122.07
2018-12-17T13:05:59.422Z,95125.42
2018-12-17T13:08:28.701Z,95126.94
2018-12-17T13:10:58.052Z,95124.91
2018-12-17T13:13:27.404Z,95126.78
2018-12-17T13:15:56.698Z,95120.52
2018-12-17T13:18:26.124Z,95123.73
2018-12-17T13:20:55.425Z,95122.07
2018-12-17T13:23:24.694Z,95121.13
2018-12-17T13:25:54.198Z,95121.13
2018-12-17T13:28:23.438Z,95129.53
2018-12-17T13:30:52.671Z,95133.03
2018-12-17T13:33:22.048Z,95142.30
2018-12-17T13:35:51.228Z,95128.78
2018-12-17T13:38:20.428Z,95129.16
2018-12-17T13:40:49.639Z,95133.03
2018-12-17T13:43:18.949Z,95129.19
2018-12-17T13:45:48.234Z,95124.09
2018-12-17T13:48:17.240Z,95125.16
2018-12-17T13:50:48.619Z,95134.25
2018-12-17T13:53:23.037Z,95132.22
2018-12-17T13:55:52.975Z,95142.61
2018-12-17T13:58:22.323Z,95140.12
2018-12-17T14:00:51.630Z,95143.33
2018-12-17T14:03:21.107Z,95142.14
2018-12-17T14:05:50.195Z,95142.01
2018-12-17T14:08:19.318Z,95146.33
2018-12-17T14:10:54.723Z,95145.04
2018-12-17T14:13:24.936Z,95147.08
2018-12-17T14:15:58.127Z,95140.65
2018-12-17T14:18:32.407Z,95143.70
2018-12-17T14:21:06.796Z,95147.08
2018-12-17T14:23:36.198Z,95146.63
2018-12-17T14:26:05.195Z,95149.60
2018-12-17T14:28:34.614Z,95151.39
2018-12-17T14:31:03.910Z,95149.89
2018-12-17T14:33:33.059Z,95157.48
2018-12-17T14:36:07.387Z,95155.73
2018-12-17T14:38:37.446Z,95159.88
2018-12-17T14:41:06.781Z,95159.66
2018-12-17T14:43:36.045Z,95163.81
2018-12-17T14:46:05.345Z,95166.30
2018-12-17T14:48:34.643Z,95166.45
2018-12-17T14:51:04.044Z,95178.77
2018-12-17T14:53:33.137Z,95184.02
2018-12-17T14:56:02.364Z,95193.07
2018-12-17T14:58:31.564Z,95194.41
2018-12-17T15:01:00.861Z,95200.44
2018-12-17T15:03:30.827Z,95201.19
2018-12-17T15:06:00.085Z,95202.25
2018-12-17T15:08:29.490Z,95204.47
2018-12-17T15:10:58.789Z,95204.91
2018-12-17T15:13:28.075Z,95219.11
2018-12-17T15:15:57.292Z,95215.09
2018-12-17T15:18:26.563Z,95216.13
2018-12-17T15:20:55.788Z,95216.03
2018-12-17T15:23:25.051Z,95218.52
2018-12-17T15:25:54.241Z,95216.55
2018-12-17T15:28:23.485Z,95214.57
2018-12-17T15:30:52.972Z,95215.17
2018-12-17T15:33:22.285Z,95212.55
2018-12-17T15:35:51.483Z,95213.58
2018-12-17T15:38:20.770Z,95215.38
2018-12-17T15:40:49.989Z,95214.92
2018-12-17T15:43:19.196Z,95221.81
2018-12-17T15:45:48.470Z,95215.50
2018-12-17T15:48:17.782Z,95219.10
2018-12-17T15:50:46.716Z,95223.02
2018-12-17T15:53:15.967Z,95224.28
2018-12-17T15:55:45.020Z,95222.48
2018-12-17T15:58:14.371Z,95224.84
2018-12-17T16:00:43.688Z,95226.33
2018-12-17T16:03:12.891Z,95233.92
2018-12-17T16:05:42.053Z,95239.16
2018-12-17T16:08:11.375Z,95238.41
2018-12-17T16:10:40.528Z,95233.83
2018-12-17T16:13:09.885Z,95245.31
2018-12-17T16:15:39.144Z,95233.55
2018-12-17T16:18:08.509Z,95239.59
2018-12-17T16:20:37.796Z,95244.89
2018-12-17T16:23:07.181Z,95251.60
2018-12-17T16:25:36.571Z,95256.51
2018-12-17T16:28:05.784Z,95252.55
2018-12-17T16:30:34.984Z,95254.14
2018-12-17T16:33:04.296Z,95255.45
2018-12-17T16:35:33.481Z,95253.77
2018-12-17T16:38:02.899Z,95255.46
2018-12-17T16:40:32.335Z,95258.92
2018-12-17T16:43:01.685Z,95263.23
2018-12-17T16:45:30.892Z,95266.55
2018-12-17T16:48:00.296Z,95279.83
2018-12-17T16:50:29.475Z,95275.48
2018-12-17T16:52:58.802Z,95276.59
2018-12-17T16:55:27.991Z,95285.77
2018-12-17T16:57:57.406Z,95294.70
2018-12-17T17:00:26.698Z,95304.39
2018-12-17T17:02:55.925Z,95309.47
2018-12-17T17:05:25.092Z,95311.56
2018-12-17T17:07:54.495Z,95312.16
2018-12-17T17:10:23.798Z,95319.30
2018-12-17T17:12:53.309Z,95321.39
2018-12-17T17:15:22.411Z,95326.16
2018-12-17T17:17:52.220Z,95317.95
2018-12-17T17:20:22.091Z,95324.53
2018-12-17T17:22:51.426Z,95323.26
2018-12-17T17:25:20.635Z,95326.69
2018-12-17T17:27:49.846Z,95323.83
2018-12-17T17:30:19.124Z,95323.50
2018-12-17T17:32:49.372Z,95317.89
2018-12-17T17:35:18.663Z,95317.67
2018-12-17T17:37:47.691Z,95312.62
2018-12-17T17:40:16.947Z,95306.65
2018-12-17T17:42:46.009Z,95321.10
2018-12-17T17:45:15.164Z,95321.95
2018-12-17T17:47:44.443Z,95324.25
2018-12-17T17:50:13.691Z,95324.33
2018-12-17T17:52:42.864Z,95326.23
2018-12-17T17:55:12.112Z,95331.36
2018-12-17T17:57:41.233Z,95324.42
2018-12-17T18:00:10.865Z,95323.09
2018-12-17T18:02:40.266Z,95331.36
2018-12-17T18:05:09.479Z,95329.91
2018-12-17T18:07:38.862Z,95323.55
2018-12-17T18:10:09.798Z,95333.05
2018-12-17T18:12:39.059Z,95337.21
2018-12-17T18:15:08.414Z,95342.45
2018-12-17T18:17:37.365Z,95349.16
2018-12-17T18:20:06.919Z,95345.92
2018-12-17T18:22:36.217Z,95353.59
2018-12-17T18:25:05.728Z,95355.53
2018-12-17T18:27:34.921Z,95358.31
2018-12-17T18:30:04.263Z,95353.80
2018-12-17T18:32:33.400Z,95353.06
2018-12-17T18:35:02.644Z,95353.80
2018-12-17T18:37:32.000Z,95353.88
2018-12-17T18:40:01.414Z,95350.00
2018-12-17T18:42:30.404Z,95358.43
2018-12-17T18:44:59.723Z,95350.36
2018-12-17T18:47:29.093Z,95350.50
2018-12-17T18:49:58.328Z,95353.30
2018-12-17T18:52:27.700Z,95359.70
2018-12-17T18:54:57.012Z,95362.39
2018-12-17T18:57:26.335Z,95362.13
2018-12-17T18:59:55.775Z,95360.90
2018-12-17T19:02:24.902Z,95358.22
2018-12-17T19:04:54.124Z,95356.63
2018-12-17T19:07:23.416Z,95364.44
2018-12-17T19:09:52.745Z,95370.45
2018-12-17T19:12:21.933Z,95372.48
2018-12-17T19:14:51.104Z,95377.55
2018-12-17T19:17:20.321Z,95380.30
2018-12-17T19:19:49.676Z,95378.29
2018-12-17T19:22:18.849Z,95383.11
2018-12-17T19:24:48.120Z,95381.63
2018-12-17T19:27:17.512Z,95382.58
2018-12-17T19:29:47.351Z,95379.43
2018-12-17T19:32:16.299Z,95378.86
2018-12-17T19:34:45.662Z,95377.16
2018-12-17T19:37:14.856Z,95377.30
2018-12-17T19:39:44.914Z,95381.86
2018-12-17T19:42:14.154Z,95392.08
2018-12-17T19:44:43.459Z,95392.75
2018-12-17T19:47:12.797Z,95390.18
2018-12-17T19:49:42.062Z,95396.19
2018-12-17T19:52:11.587Z,95397.55
2018-12-17T19:54:40.964Z,95399.53
2018-12-17T19:57:10.427Z,95404.31
2018-12-17T19:59:39.684Z,95411.00
2018-12-17T20:02:08.891Z,95408.70
2018-12-17T20:04:38.144Z,95403.50
2018-12-17T20:07:07.318Z,95404.64
2018-12-17T20:09:36.479Z,95401.70
2018-12-17T20:12:05.971Z,95401.81
2018-12-17T20:14:35.478Z,95408.24
2018-12-17T20:17:04.896Z,95409.38
2018-12-17T20:19:34.266Z,95411.41
2018-12-17T20:22:03.518Z,95404.24
2018-12-17T20:24:32.830Z,95411.05
2018-12-17T20:27:02.073Z,95414.48
2018-12-17T20:29:31.390Z,95419.78
2018-12-17T20:32:00.754Z,95416.41
2018-12-17T20:34:29.998Z,95418.98
2018-12-17T20:36:59.216Z,95417.48
2018-12-17T20:39:28.488Z,95428.37
2018-12-17T20:41:57.903Z,95431.52
2018-12-17T20:44:27.312Z,95434.78
2018-12-17T20:46:56.688Z,95439.42
2018-12-17T20:49:25.895Z,95440.23
2018-12-17T20:51:55.201Z,95444.19
2018-12-17T20:54:24.498Z,95441.22
2018-12-17T20:56:53.815Z,95441.95
2018-12-17T20:59:23.109Z,95451.90
2018-12-17T21:01:52.607Z,95448.48
2018-12-17T21:04:22.069Z,95445.80
2018-12-17T21:06:51.427Z,95446.98
2018-12-17T21:09:20.836Z,95454.22
2018-12-17T21:11:50.224Z,95456.09
2018-12-17T21:14:23.745Z,95458.93
2018-12-17T21:16:50.981Z,95464.58
2018-12-17T21:19:20.324Z,95469.80
2018-12-17T21:21:49.487Z,95455.48
2018-12-17T21:24:18.692Z,95461.74
2018-12-17T21:26:48.192Z,95466.37
2018-12-17T21:29:17.676Z,95473.73
2018-12-17T21:31:46.979Z,95479.34
2018-12-17T21:34:16.297Z,95473.00
2018-12-17T21:36:45.704Z,95479.03
2018-12-17T21:39:15.001Z,95468.61
2018-12-17T21:41:44.488Z,95472.11
2018-12-17T21:44:13.896Z,95466.30
2018-12-17T21:46:43.303Z,95470.16
2018-12-17T21:49:12.503Z,95467.55
2018-12-17T21:51:41.920Z,95469.27
2018-12-17T21:54:11.343Z,95462.03
2018-12-17T21:56:40.620Z,95464.55
2018-12-17T21:59:10.127Z,95456.73
2018-12-17T22:01:39.642Z,95454.78
2018-12-17T22:04:09.068Z,95456.21
2018-12-17T22:06:38.369Z,95458.37
2018-12-17T22:09:08.457Z,95457.42
2018-12-17T22:11:37.755Z,95443.44
2018-12-17T22:14:06.988Z,95450.68
2018-12-17T22:16:36.447Z,95451.00
2018-12-17T22:19:05.855Z,95453.08
2018-12-17T22:21:35.219Z,95454.12
2018-12-17T22:24:04.459Z,95462.23
2018-12-17T22:26:33.932Z,95461.56
2018-12-17T22:29:03.168Z,95462.59
2018-12-17T22:31:32.588Z,95467.55
2018-12-17T22:34:01.963Z,95462.59
2018-12-17T22:36:31.371Z,95466.94
2018-12-17T22:39:00.670Z,95461.86
2018-12-17T22:41:29.975Z,95461.65
2018-12-17T22:43:59.271Z,95455.06
2018-12-17T22:46:28.748Z,95459.41
2018-12-17T22:48:58.094Z,95465.80
2018-12-17T22:51:27.507Z,95465.72
2018-12-17T22:53:56.923Z,95460.14
2018-12-17T22:56:26.202Z,95449.77
2018-12-17T22:58:55.516Z,95444.05
2018-12-17T23:01:24.831Z,95442.78
2018-12-17T23:03:54.197Z,95445.59
2018-12-17T23:06:23.687Z,95440.10
2018-12-17T23:09:05.661Z,95441.28
2018-12-17T23:11:50.760Z,95437.96
2018-12-17T23:14:30.723Z,95439.33
2018-12-17T23:17:10.683Z,95441.02
2018-12-17T23:19:43.579Z,95451.59
2018-12-17T23:22:12.983Z,95443.09
2018-12-17T23:24:42.415Z,95435.22
2018-12-17T23:27:11.484Z,95445.38
2018-12-17T23:29:40.875Z,95442.47
2018-12-17T23:32:10.293Z,95441.08
2018-12-17T23:34:39.668Z,95429.09
2018-12-17T23:37:08.896Z,95439.30
2018-12-17T23:39:38.405Z,95439.12
2018-12-17T23:42:07.737Z,95442.34
2018-12-17T23:44:37.651Z,95427.86
2018-12-17T23:47:07.203Z,95426.54
2018-12-17T23:49:36.703Z,95430.16
2018-12-17T23:52:06.019Z,95426.86
2018-12-17T23:54:35.330Z,95423.02
2018-12-17T23:57:04.738Z,95420.87
2018-12-17T23:59:34.025Z,95426.31
